createdAt,value
2023-01-20T00:49:05.831Z,101011.59
2023-01-20T00:58:35.934Z,101040.47
2023-01-20T01:09:14.511Z,101020.41
2023-01-20T01:28:21.880Z,101043.66
2023-01-20T01:33:31.769Z,101048.16
2023-01-20T01:36:29.453Z,101053.81
2023-01-20T01:42:15.108Z,101079.41
2023-01-20T01:45:26.329Z,101069.78
2023-01-20T01:48:05.393Z,101059.38
2023-01-20T01:50:43.469Z,101064.59
2023-01-20T01:53:12.625Z,101054.03
2023-01-20T01:55:53.531Z,101053.25
2023-01-20T01:58:29.085Z,101052.47
2023-01-20T02:00:57.906Z,101065.53
2023-01-20T02:03:29.677Z,101056.00
2023-01-20T02:05:58.496Z,101057.72
2023-01-20T02:08:27.374Z,101063.97
2023-01-20T02:10:57.194Z,101063.97
2023-01-20T02:13:25.569Z,101062.22
2023-01-20T02:16:04.560Z,101067.41
2023-01-20T02:18:45.764Z,101061.41
2023-01-20T02:21:51.214Z,101055.22
2023-01-20T02:24:44.494Z,101061.41
2023-01-20T02:27:24.156Z,101068.50
2023-01-20T02:30:30.254Z,101065.66
2023-01-20T02:33:07.708Z,101064.66
2023-01-20T02:35:43.587Z,101056.88
2023-01-20T02:38:18.354Z,101063.97
2023-01-20T02:40:54.927Z,101063.16
2023-01-20T02:43:30.380Z,101056.28
2023-01-20T02:46:06.253Z,101060.63
2023-01-20T02:48:44.488Z,101060.63
2023-01-20T02:51:17.612Z,101062.50
2023-01-20T02:53:49.904Z,101061.50
2023-01-20T02:56:19.820Z,101052.75
2023-01-20T02:58:52.193Z,101059.03
2023-01-20T03:01:26.641Z,101057.38
2023-01-20T03:04:01.427Z,101052.13
2023-01-20T03:06:34.658Z,101057.47
2023-01-20T03:09:08.660Z,101060.13
2023-01-20T03:11:44.902Z,101057.50
2023-01-20T03:14:15.485Z,101046.97
2023-01-20T03:16:44.154Z,101055.13
2023-01-20T03:19:13.725Z,101047.06
2023-01-20T03:21:42.420Z,101063.59
2023-01-20T03:24:10.692Z,101059.34
2023-01-20T03:26:39.934Z,101046.09
2023-01-20T03:29:11.487Z,101049.50
2023-01-20T03:31:42.492Z,101046.91
2023-01-20T03:34:16.183Z,101046.19
2023-01-20T03:36:48.759Z,101060.06
2023-01-20T03:39:18.054Z,101057.38
2023-01-20T03:41:58.134Z,101060.91
2023-01-20T03:44:35.144Z,101065.19
2023-01-20T03:47:09.954Z,101059.16
2023-01-20T03:49:47.531Z,101059.13
2023-01-20T03:52:24.001Z,101064.50
2023-01-20T03:55:17.470Z,101058.31
2023-01-20T03:57:51.053Z,101064.38
2023-01-20T04:00:27.218Z,101073.84
2023-01-20T04:03:00.416Z,101057.31
2023-01-20T04:05:31.062Z,101067.69
2023-01-20T04:08:06.611Z,101067.63
2023-01-20T04:10:38.287Z,101066.84
2023-01-20T04:13:07.381Z,101059.97
2023-01-20T04:15:41.383Z,101062.66
2023-01-20T04:18:14.742Z,101082.00
2023-01-20T04:20:45.984Z,101074.06
2023-01-20T04:23:22.420Z,101067.88
2023-01-20T04:25:50.764Z,101070.59
2023-01-20T04:28:19.006Z,101069.72
2023-01-20T04:30:47.590Z,101062.50
2023-01-20T04:33:15.891Z,101066.91
2023-01-20T04:35:45.592Z,101072.31
2023-01-20T04:38:13.768Z,101077.53
2023-01-20T04:40:41.986Z,101066.25
2023-01-20T04:43:12.349Z,101079.41
2023-01-20T04:45:42.441Z,101078.75
2023-01-20T04:48:11.701Z,101087.34
2023-01-20T04:50:40.847Z,101076.91
2023-01-20T04:53:13.661Z,101100.66
2023-01-20T04:55:41.927Z,101101.53
2023-01-20T04:58:11.028Z,101096.31
2023-01-20T05:00:39.507Z,101093.50
2023-01-20T05:03:08.221Z,101083.91
2023-01-20T05:05:36.489Z,101094.44
2023-01-20T05:08:05.486Z,101098.97
2023-01-20T05:10:35.575Z,101098.75
2023-01-20T05:13:03.796Z,101095.25
2023-01-20T05:15:32.109Z,101080.34
2023-01-20T05:18:00.409Z,101089.00
2023-01-20T05:20:28.819Z,101085.69
2023-01-20T05:22:58.854Z,101090.03
2023-01-20T05:25:28.810Z,101089.38
2023-01-20T05:28:01.947Z,101091.41
2023-01-20T05:30:30.236Z,101100.06
2023-01-20T05:33:01.396Z,101115.97
2023-01-20T05:35:32.645Z,101110.56
2023-01-20T05:38:03.515Z,101114.88
2023-01-20T05:40:31.934Z,101106.16
2023-01-20T05:43:05.182Z,101107.06
2023-01-20T05:45:33.717Z,101112.22
2023-01-20T05:48:03.338Z,101111.28
2023-01-20T05:50:31.894Z,101109.53
2023-01-20T05:53:01.015Z,101113.78
2023-01-20T05:55:32.331Z,101120.88
2023-01-20T05:58:05.684Z,101106.78
2023-01-20T06:00:34.299Z,101120.78
2023-01-20T06:03:03.503Z,101124.34
2023-01-20T06:05:34.973Z,101112.22
2023-01-20T06:08:03.392Z,101111.28
2023-01-20T06:10:31.848Z,101124.44
2023-01-20T06:13:14.945Z,101124.28
2023-01-20T06:15:45.073Z,101119.84
2023-01-20T06:18:14.571Z,101112.13
2023-01-20T06:20:43.058Z,101110.34
2023-01-20T06:23:11.238Z,101112.22
2023-01-20T06:25:42.667Z,101106.06
2023-01-20T06:28:13.956Z,101115.44
2023-01-20T06:30:43.632Z,101108.44
2023-01-20T06:33:22.792Z,101104.28
2023-01-20T06:35:54.924Z,101114.97
2023-01-20T06:38:35.552Z,101111.19
2023-01-20T06:41:17.022Z,101104.31
2023-01-20T06:43:51.655Z,101106.16
2023-01-20T06:46:33.720Z,101108.91
2023-01-20T11:26:28.440Z,101275.31
2023-01-20T11:28:58.921Z,101262.41
2023-01-20T11:31:43.591Z,101280.75
2023-01-20T11:34:24.159Z,101262.34
2023-01-20T11:37:11.754Z,101270.66
2023-01-20T11:39:45.697Z,101282.16
2023-01-20T11:42:20.323Z,101277.63
2023-01-20T11:44:54.453Z,101270.81
2023-01-20T11:48:18.398Z,101293.69
2023-01-20T12:02:03.616Z,101282.25
2023-01-20T12:05:48.892Z,101291.72
2023-01-20T12:08:23.000Z,101292.00
2023-01-20T12:11:13.889Z,101298.94
2023-01-20T12:17:48.359Z,101295.63
2023-01-20T12:20:56.035Z,101291.22
2023-01-20T12:23:34.124Z,101298.00
2023-01-20T12:26:07.285Z,101302.47
2023-01-20T12:28:40.486Z,101300.78
2023-01-20T12:31:11.848Z,101312.13
2023-01-20T12:34:02.747Z,101309.56
2023-01-20T12:36:59.239Z,101312.81
2023-01-20T12:39:38.778Z,101303.03
2023-01-20T12:42:49.225Z,101305.97
2023-01-20T12:45:28.054Z,101303.31
2023-01-20T12:48:20.333Z,101290.03
2023-01-20T12:51:20.669Z,101302.59
2023-01-20T12:58:13.041Z,101302.81
2023-01-20T13:33:29.379Z,101293.72
2023-01-20T13:36:18.398Z,101283.66
2023-01-20T13:38:52.531Z,101282.66
2023-01-20T13:41:51.603Z,101292.00
2023-01-20T13:44:44.544Z,101284.03
